Time;durP1;ratioP1;P1;durP2;ratioP2;P2;SDS_P1;SDS_P2;PMS_P1;PMS_P2;Temp;Humidity;BMP_temperature;BMP_pressure;BME280_temperature;BME280_humidity;BME280_pressure;Samples;Min_cycle;Max_cycle;Signal;HPM_P1;HPM_P2
2022/07/25 00:04:19;;;;;;;;;;;;;;;;;;21174407;28;19920;-73
2022/07/25 00:14:21;;;;;;;;;;;;;;;;;;21172830;28;19919;-57
2022/07/25 00:24:23;;;;;;;;;;;;;;;;;;21174263;28;19919;-60
2022/07/25 00:34:25;;;;;;;;;;;;;;;;;;21171884;28;20379;-54
2022/07/25 00:44:26;;;;;;;;;;;;;;;;;;21171985;28;19926;-65
2022/07/25 00:54:28;;;;;;;;;;;;;;;;;;21171504;28;19919;-58
2022/07/25 01:04:31;;;;;;;;;;;;;;;;;;21170988;28;19920;-62
2022/07/25 01:14:33;;;;;;;;;;;;;;;;;;21168184;28;20424;-65
2022/07/25 01:24:35;;;;;;;;;;;;;;;;;;21168011;28;19972;-62
2022/07/25 01:34:39;;;;;;;;;;;;;;;;;;21167169;28;19920;-70
2022/07/25 01:44:47;;;;;;;;;;;;;;;;;;21166569;28;19978;-64
2022/07/25 01:54:52;;;;;;;;;;;;;;;;;;21165385;28;20298;-61
2022/07/25 02:04:56;;;;;;;;;;;;;;;;;;21165380;28;19920;-62
2022/07/25 02:15:02;;;;;;;;;;;;;;;;;;21165633;28;19920;-56
2022/07/25 02:25:06;;;;;;;;;;;;;;;;;;21166671;28;19927;-67
2022/07/25 02:35:07;;;;;;;;;;;;;;;;;;21163508;28;19982;-61
2022/07/25 02:45:11;;;;;;;;;;;;;;;;;;21163281;28;19920;-54
2022/07/25 02:55:16;;;;;;;;;;;;;;;;;;21163259;28;19926;-58
2022/07/25 03:05:18;;;;;;;;;;;;;;;;;;21176297;28;19919;-65
2022/07/25 03:15:19;;;;;;;;;;;;;;;;;;21178321;28;19968;-58
2022/07/25 03:25:22;;;;;;;;;;;;;;;;;;21178021;28;20368;-55
2022/07/25 03:35:24;;;;;;;;;;;;;;;;;;21176259;28;19919;-55
2022/07/25 03:45:27;;;;;;;;;;;;;;;;;;21176531;28;20012;-61
2022/07/25 03:55:29;;;;;;;;;;;;;;;;;;21175474;28;19919;-58
2022/07/25 04:05:31;;;;;;;;;;;;;;;;;;21173895;28;20003;-56
2022/07/25 04:15:33;;;;;;;;;;;;;;;;;;21171736;28;19919;-60
2022/07/25 04:25:34;;;;;;;;;;;;;;;;;;21172948;28;19963;-57
2022/07/25 04:35:36;;;;;;;;;;;;;;;;;;21172146;28;19988;-58
2022/07/25 04:45:38;;;;;;;;;;;;;;;;;;21171117;28;19920;-56
2022/07/25 04:55:40;;;;;;;;;;;;;;;;;;21170118;28;19926;-52
2022/07/25 05:05:42;;;;;;;;;;;;;;;;;;21169901;28;19920;-54
2022/07/25 05:15:44;;;;;;;;;;;;;;;;;;21168807;28;20432;-59
2022/07/25 05:25:45;;;;;;;;;;;;;;;;;;21167947;28;19919;-54
2022/07/25 05:35:47;;;;;;;;;;;;;;;;;;21167269;28;19975;-69
2022/07/25 05:46:07;;;;;;;;;;;;;;;;;;21166595;28;19908;-67
2022/07/25 05:56:08;;;;;;;;;;;;;;;;;;21167056;28;19927;-64
2022/07/25 06:06:10;;;;;;;;;;;;;;;;;;21169681;28;19924;-54
2022/07/25 06:16:12;;;;;;;;;;;;;;;;;;21164381;28;19920;-54
2022/07/25 06:26:13;;;;;;;;;;;;;;;;;;21165035;28;20372;-54
2022/07/25 06:36:15;;;;;;;;;;;;;;;;;;21174923;28;19920;-54
2022/07/25 06:46:16;;;;;;;;;;;;;;;;;;21190811;28;20341;-53
2022/07/25 06:56:18;;;;;;;;;;;;;;;;;;21191983;28;19923;-55
2022/07/25 07:06:19;;;;;;;;;;;;;;;;;;21191354;28;19920;-59
2022/07/25 07:16:21;;;;;;;;;;;;;;;;;;21190941;28;19926;-70
2022/07/25 07:26:23;;;;;;;;;;;;;;;;;;21190057;28;19971;-61
2022/07/25 07:36:25;;;;;;;;;;;;;;;;;;21189550;28;19924;-62
2022/07/25 07:46:27;;;;;;;;;;;;;;;;;;21184483;28;19920;-57
2022/07/25 07:56:29;;;;;;;;;;;;;;;;;;21175232;28;20293;-73
2022/07/25 08:06:30;;;;;;;;;;;;;;;;;;21174069;28;20391;-55
2022/07/25 08:16:32;;;;;;;;;;;;;;;;;;21174348;28;19927;-53
2022/07/25 08:26:35;;;;;;;;;;;;;;;;;;21175212;28;19919;-65
2022/07/25 08:36:37;;;;;;;;;;;;;;;;;;21173716;28;20253;-77
2022/07/25 08:46:38;;;;;;;;;;;;;;;;;;21172157;28;20286;-60
2022/07/25 08:56:41;;;;;;;;;;;;;;;;;;21172399;28;20276;-62
2022/07/25 09:06:42;;;;;;;;;;;;;;;;;;21171205;28;19964;-56
2022/07/25 09:16:44;;;;;;;;;;;;;;;;;;21169703;28;19981;-57
2022/07/25 09:26:45;;;;;;;;;;;;;;;;;;21174328;28;19927;-70
2022/07/25 09:36:47;;;;;;;;;;;;;;;;;;21175919;28;19968;-70
2022/07/25 09:46:49;;;;;;;;;;;;;;;;;;21179237;28;19920;-73
2022/07/25 09:56:51;;;;;;;;;;;;;;;;;;21169114;28;20378;-70
2022/07/25 10:06:54;;;;;;;;;;;;;;;;;;21158831;28;19920;-66
2022/07/25 10:16:56;;;;;;;;;;;;;;;;;;21163567;28;19920;-63
2022/07/25 10:26:57;;;;;;;;;;;;;;;;;;21163808;28;19963;-74
2022/07/25 10:36:59;;;;;;;;;;;;;;;;;;21167736;28;19923;-54
2022/07/25 10:47:01;;;;;;;;;;;;;;;;;;21164170;28;19919;-58
2022/07/25 10:57:02;;;;;;;;;;;;;;;;;;21163546;28;20011;-56
2022/07/25 11:07:04;;;;;;;;;;;;;;;;;;21165151;28;19920;-64
2022/07/25 11:17:06;;;;;;;;;;;;;;;;;;21162243;28;19920;-64
2022/07/25 11:27:08;;;;;;;;;;;;;;;;;;21176459;28;20287;-62
2022/07/25 11:37:11;;;;;;;;;;;;;;;;;;21179595;28;20359;-55
2022/07/25 11:47:12;;;;;;;;;;;;;;;;;;21188530;28;19919;-67
2022/07/25 11:57:14;;;;;;;;;;;;;;;;;;21201724;28;19920;-61
2022/07/25 12:07:16;;;;;;;;;;;;;;;;;;21177930;28;20291;-53
2022/07/25 12:17:18;;;;;;;;;;;;;;;;;;21175632;28;19923;-54
2022/07/25 12:27:20;;;;;;;;;;;;;;;;;;21176143;28;19954;-60
2022/07/25 12:37:22;;;;;;;;;;;;;;;;;;21171938;28;20334;-53
2022/07/25 12:47:24;;;;;;;;;;;;;;;;;;21174675;28;19919;-79
2022/07/25 12:57:26;;;;;;;;;;;;;;;;;;21173874;28;19926;-61
2022/07/25 13:07:28;;;;;;;;;;;;;;;;;;21172828;28;19926;-77
2022/07/25 13:17:30;;;;;;;;;;;;;;;;;;21175900;28;19972;-71
2022/07/25 13:27:34;;;;;;;;;;;;;;;;;;21168486;28;20271;-65
2022/07/25 13:37:36;;;;;;;;;;;;;;;;;;21167873;28;20311;-63
2022/07/25 13:47:38;;;;;;;;;;;;;;;;;;21166859;28;19919;-55
2022/07/25 13:57:40;;;;;;;;;;;;;;;;;;21166470;28;19926;-60
2022/07/25 14:07:42;;;;;;;;;;;;;;;;;;21165505;28;20014;-70
2022/07/25 14:17:44;;;;;;;;;;;;;;;;;;21164804;28;19966;-64
2022/07/25 14:27:46;;;;;;;;;;;;;;;;;;21168596;28;19919;-56
2022/07/25 14:37:48;;;;;;;;;;;;;;;;;;21163031;28;19924;-68
2022/07/25 14:47:50;;;;;;;;;;;;;;;;;;21162908;28;19919;-59
2022/07/25 14:57:52;;;;;;;;;;;;;;;;;;21170470;28;20325;-55
2022/07/25 15:07:54;;;;;;;;;;;;;;;;;;21180789;28;19966;-60
2022/07/25 15:17:55;;;;;;;;;;;;;;;;;;21179280;28;19919;-55
2022/07/25 15:27:57;;;;;;;;;;;;;;;;;;21177906;28;19920;-55
2022/07/25 15:37:59;;;;;;;;;;;;;;;;;;21177199;28;19924;-56
2022/07/25 15:48:02;;;;;;;;;;;;;;;;;;21158333;28;19963;-56
2022/07/25 15:58:04;;;;;;;;;;;;;;;;;;21176455;28;19919;-55
2022/07/25 16:08:07;;;;;;;;;;;;;;;;;;21173422;28;19919;-55
2022/07/25 16:18:08;;;;;;;;;;;;;;;;;;21174625;28;19969;-56
2022/07/25 16:28:10;;;;;;;;;;;;;;;;;;21182116;28;19920;-54
2022/07/25 16:38:14;;;;;;;;;;;;;;;;;;21181998;28;19924;-54
2022/07/25 16:48:16;;;;;;;;;;;;;;;;;;21178312;28;19942;-62
2022/07/25 16:58:18;;;;;;;;;;;;;;;;;;21179342;28;20013;-65
2022/07/25 17:08:20;;;;;;;;;;;;;;;;;;21171183;28;19920;-56
2022/07/25 17:18:22;;;;;;;;;;;;;;;;;;21168561;28;19920;-55
2022/07/25 17:28:23;;;;;;;;;;;;;;;;;;21170705;28;20364;-54
2022/07/25 17:38:25;;;;;;;;;;;;;;;;;;21174349;28;19942;-54
2022/07/25 17:48:27;;;;;;;;;;;;;;;;;;21168289;28;19919;-62
2022/07/25 17:58:29;;;;;;;;;;;;;;;;;;21166739;28;19924;-71
2022/07/25 18:08:34;;;;;;;;;;;;;;;;;;21165278;28;19977;-59
2022/07/25 18:18:36;;;;;;;;;;;;;;;;;;21164818;28;19919;-55
2022/07/25 18:28:37;;;;;;;;;;;;;;;;;;21163920;28;20363;-55
2022/07/25 18:38:40;;;;;;;;;;;;;;;;;;21163012;28;19919;-53
2022/07/25 18:48:42;;;;;;;;;;;;;;;;;;21162311;28;19920;-55
2022/07/25 18:58:44;;;;;;;;;;;;;;;;;;21164002;28;19920;-56
2022/07/25 19:08:46;;;;;;;;;;;;;;;;;;21163147;28;19965;-56
2022/07/25 19:18:48;;;;;;;;;;;;;;;;;;21162760;28;19919;-61
2022/07/25 19:28:50;;;;;;;;;;;;;;;;;;21162665;28;20002;-68
2022/07/25 19:38:51;;;;;;;;;;;;;;;;;;21163528;28;19923;-55
2022/07/25 19:48:53;;;;;;;;;;;;;;;;;;21178087;28;19967;-56
2022/07/25 19:58:55;;;;;;;;;;;;;;;;;;21176296;28;20287;-64
2022/07/25 20:08:57;;;;;;;;;;;;;;;;;;21174645;28;19919;-54
2022/07/25 20:18:59;;;;;;;;;;;;;;;;;;21174143;28;19924;-55
2022/07/25 20:29:01;;;;;;;;;;;;;;;;;;21175290;28;19919;-53
2022/07/25 20:39:02;;;;;;;;;;;;;;;;;;21175404;28;19964;-55
2022/07/25 20:49:07;;;;;;;;;;;;;;;;;;21174426;28;19920;-60
2022/07/25 20:59:08;;;;;;;;;;;;;;;;;;21169923;28;19919;-65
2022/07/25 21:09:10;;;;;;;;;;;;;;;;;;21171627;28;19920;-56
2022/07/25 21:19:12;;;;;;;;;;;;;;;;;;21169300;28;19920;-57
2022/07/25 21:29:14;;;;;;;;;;;;;;;;;;21168957;28;19925;-61
2022/07/25 21:39:16;;;;;;;;;;;;;;;;;;21168378;28;19966;-60
2022/07/25 21:59:38;;;;;;;;;;;;;;;;;;21166590;28;19920;-56
2022/07/25 22:09:40;;;;;;;;;;;;;;;;;;21166299;28;20375;-57
2022/07/25 22:19:42;;;;;;;;;;;;;;;;;;21165242;28;19974;-60
2022/07/25 22:29:45;;;;;;;;;;;;;;;;;;21164184;28;19926;-61
2022/07/25 22:39:46;;;;;;;;;;;;;;;;;;21164230;28;19920;-59
2022/07/25 22:49:49;;;;;;;;;;;;;;;;;;21163702;28;19927;-61
2022/07/25 22:59:51;;;;;;;;;;;;;;;;;;21162871;28;19920;-59
2022/07/25 23:09:53;;;;;;;;;;;;;;;;;;21162904;28;19926;-68
2022/07/25 23:19:55;;;;;;;;;;;;;;;;;;21171551;28;19926;-61
2022/07/25 23:29:56;;;;;;;;;;;;;;;;;;21178351;28;20395;-59
2022/07/25 23:39:58;;;;;;;;;;;;;;;;;;21177701;28;19925;-60
2022/07/25 23:50:00;;;;;;;;;;;;;;;;;;21177044;28;19923;-62
